sensor_id;sensor_type;location;lat;lon;timestamp;temperature;humidity
11491;DHT22;5802;52.832;4.758;2024-01-16T00:00:55;23.00;39.20
11491;DHT22;5802;52.832;4.758;2024-01-16T00:03:24;23.00;39.20
11491;DHT22;5802;52.832;4.758;2024-01-16T00:05:50;23.00;39.10
11491;DHT22;5802;52.832;4.758;2024-01-16T00:08:17;23.00;39.10
11491;DHT22;5802;52.832;4.758;2024-01-16T00:10:44;23.00;39.10
11491;DHT22;5802;52.832;4.758;2024-01-16T00:13:11;23.00;39.10
11491;DHT22;5802;52.832;4.758;2024-01-16T00:15:38;23.00;39.10
11491;DHT22;5802;52.832;4.758;2024-01-16T00:18:07;23.00;39.10
11491;DHT22;5802;52.832;4.758;2024-01-16T00:20:35;23.00;39.10
11491;DHT22;5802;52.832;4.758;2024-01-16T00:23:02;23.00;39.10
11491;DHT22;5802;52.832;4.758;2024-01-16T00:25:29;23.00;39.00
11491;DHT22;5802;52.832;4.758;2024-01-16T00:27:56;23.00;39.10
11491;DHT22;5802;52.832;4.758;2024-01-16T00:30:23;23.00;39.00
11491;DHT22;5802;52.832;4.758;2024-01-16T00:32:50;23.00;39.10
11491;DHT22;5802;52.832;4.758;2024-01-16T00:35:17;23.00;39.00
11491;DHT22;5802;52.832;4.758;2024-01-16T00:37:45;23.00;39.00
11491;DHT22;5802;52.832;4.758;2024-01-16T00:40:12;23.00;39.00
11491;DHT22;5802;52.832;4.758;2024-01-16T00:42:39;23.00;39.00
11491;DHT22;5802;52.832;4.758;2024-01-16T00:45:08;23.00;38.90
11491;DHT22;5802;52.832;4.758;2024-01-16T00:47:35;23.00;38.90
11491;DHT22;5802;52.832;4.758;2024-01-16T00:50:02;23.00;39.50
11491;DHT22;5802;52.832;4.758;2024-01-16T00:52:29;23.00;38.80
11491;DHT22;5802;52.832;4.758;2024-01-16T00:54:57;23.00;38.80
11491;DHT22;5802;52.832;4.758;2024-01-16T00:57:24;23.00;38.80
11491;DHT22;5802;52.832;4.758;2024-01-16T00:59:50;23.00;38.80
11491;DHT22;5802;52.832;4.758;2024-01-16T01:02:17;23.00;38.80
11491;DHT22;5802;52.832;4.758;2024-01-16T01:04:44;23.00;38.90
11491;DHT22;5802;52.832;4.758;2024-01-16T01:07:13;23.00;38.80
11491;DHT22;5802;52.832;4.758;2024-01-16T01:09:40;23.00;38.80
11491;DHT22;5802;52.832;4.758;2024-01-16T01:12:08;23.00;38.80
11491;DHT22;5802;52.832;4.758;2024-01-16T01:14:35;23.00;38.80
11491;DHT22;5802;52.832;4.758;2024-01-16T01:17:02;23.00;38.90
11491;DHT22;5802;52.832;4.758;2024-01-16T01:19:29;23.00;38.90
11491;DHT22;5802;52.832;4.758;2024-01-16T01:21:56;23.00;38.90
11491;DHT22;5802;52.832;4.758;2024-01-16T01:24:23;23.00;38.80
11491;DHT22;5802;52.832;4.758;2024-01-16T01:26:50;23.00;38.80
11491;DHT22;5802;52.832;4.758;2024-01-16T01:29:18;23.00;38.80
11491;DHT22;5802;52.832;4.758;2024-01-16T01:31:47;23.00;38.90
11491;DHT22;5802;52.832;4.758;2024-01-16T01:34:13;23.00;38.90
11491;DHT22;5802;52.832;4.758;2024-01-16T01:36:40;23.00;38.80
11491;DHT22;5802;52.832;4.758;2024-01-16T01:39:08;23.00;38.90
11491;DHT22;5802;52.832;4.758;2024-01-16T01:41:36;23.00;38.90
11491;DHT22;5802;52.832;4.758;2024-01-16T01:44:03;23.00;38.80
11491;DHT22;5802;52.832;4.758;2024-01-16T01:46:32;23.00;38.80
11491;DHT22;5802;52.832;4.758;2024-01-16T01:49:00;23.00;38.90
11491;DHT22;5802;52.832;4.758;2024-01-16T01:51:28;23.00;38.80
11491;DHT22;5802;52.832;4.758;2024-01-16T01:53:56;23.00;38.90
11491;DHT22;5802;52.832;4.758;2024-01-16T01:56:24;23.00;38.90
11491;DHT22;5802;52.832;4.758;2024-01-16T01:58:54;23.00;38.80
11491;DHT22;5802;52.832;4.758;2024-01-16T02:01:23;23.00;38.80
11491;DHT22;5802;52.832;4.758;2024-01-16T02:03:52;23.00;38.80
11491;DHT22;5802;52.832;4.758;2024-01-16T02:06:22;23.00;39.50
11491;DHT22;5802;52.832;4.758;2024-01-16T02:08:49;23.00;38.80
11491;DHT22;5802;52.832;4.758;2024-01-16T02:11:16;23.00;38.80
11491;DHT22;5802;52.832;4.758;2024-01-16T02:13:43;23.00;38.80
11491;DHT22;5802;52.832;4.758;2024-01-16T02:16:18;23.10;38.80
11491;DHT22;5802;52.832;4.758;2024-01-16T02:18:45;23.00;38.80
11491;DHT22;5802;52.832;4.758;2024-01-16T02:21:17;23.00;38.80
11491;DHT22;5802;52.832;4.758;2024-01-16T02:23:46;23.10;38.80
11491;DHT22;5802;52.832;4.758;2024-01-16T02:26:17;23.10;38.80
11491;DHT22;5802;52.832;4.758;2024-01-16T02:28:44;23.10;38.80
11491;DHT22;5802;52.832;4.758;2024-01-16T02:31:11;23.10;38.80
11491;DHT22;5802;52.832;4.758;2024-01-16T02:33:38;23.10;38.80
11491;DHT22;5802;52.832;4.758;2024-01-16T02:36:05;23.10;38.80
11491;DHT22;5802;52.832;4.758;2024-01-16T02:38:32;23.10;38.80
11491;DHT22;5802;52.832;4.758;2024-01-16T02:41:00;23.10;38.80
11491;DHT22;5802;52.832;4.758;2024-01-16T02:43:27;23.10;38.80
11491;DHT22;5802;52.832;4.758;2024-01-16T02:45:54;23.10;38.80
11491;DHT22;5802;52.832;4.758;2024-01-16T02:48:21;23.10;38.80
11491;DHT22;5802;52.832;4.758;2024-01-16T02:50:47;23.10;38.80
11491;DHT22;5802;52.832;4.758;2024-01-16T02:53:14;23.10;38.80
11491;DHT22;5802;52.832;4.758;2024-01-16T02:55:41;23.10;38.80
11491;DHT22;5802;52.832;4.758;2024-01-16T02:58:09;23.10;38.80
11491;DHT22;5802;52.832;4.758;2024-01-16T03:00:36;23.10;38.80
11491;DHT22;5802;52.832;4.758;2024-01-16T03:03:04;23.10;38.80
11491;DHT22;5802;52.832;4.758;2024-01-16T03:05:31;23.10;38.70
11491;DHT22;5802;52.832;4.758;2024-01-16T03:07:58;23.10;38.70
11491;DHT22;5802;52.832;4.758;2024-01-16T03:10:25;23.10;38.70
11491;DHT22;5802;52.832;4.758;2024-01-16T03:12:52;23.10;38.70
11491;DHT22;5802;52.832;4.758;2024-01-16T03:15:20;23.10;38.70
11491;DHT22;5802;52.832;4.758;2024-01-16T03:17:47;23.10;38.70
11491;DHT22;5802;52.832;4.758;2024-01-16T03:20:15;23.10;38.70
11491;DHT22;5802;52.832;4.758;2024-01-16T03:22:42;23.10;38.70
11491;DHT22;5802;52.832;4.758;2024-01-16T03:25:10;23.10;38.70
11491;DHT22;5802;52.832;4.758;2024-01-16T03:27:37;23.10;38.70
11491;DHT22;5802;52.832;4.758;2024-01-16T03:30:05;23.20;38.70
11491;DHT22;5802;52.832;4.758;2024-01-16T03:32:35;23.20;38.70
11491;DHT22;5802;52.832;4.758;2024-01-16T03:35:02;23.20;38.70
11491;DHT22;5802;52.832;4.758;2024-01-16T03:37:29;23.20;38.80
11491;DHT22;5802;52.832;4.758;2024-01-16T03:39:56;23.20;38.80
11491;DHT22;5802;52.832;4.758;2024-01-16T03:42:23;23.20;38.80
11491;DHT22;5802;52.832;4.758;2024-01-16T03:44:50;23.20;38.70
11491;DHT22;5802;52.832;4.758;2024-01-16T03:47:17;23.20;38.70
11491;DHT22;5802;52.832;4.758;2024-01-16T03:49:45;23.10;38.70
11491;DHT22;5802;52.832;4.758;2024-01-16T03:52:12;23.20;38.80
11491;DHT22;5802;52.832;4.758;2024-01-16T03:54:39;23.20;38.70
11491;DHT22;5802;52.832;4.758;2024-01-16T03:57:05;23.20;38.80
11491;DHT22;5802;52.832;4.758;2024-01-16T03:59:32;23.20;38.70
11491;DHT22;5802;52.832;4.758;2024-01-16T04:02:00;23.20;38.70
11491;DHT22;5802;52.832;4.758;2024-01-16T04:04:28;23.20;38.70
11491;DHT22;5802;52.832;4.758;2024-01-16T04:06:57;23.20;38.70
11491;DHT22;5802;52.832;4.758;2024-01-16T04:09:23;23.20;38.80
11491;DHT22;5802;52.832;4.758;2024-01-16T04:11:50;23.20;38.70
11491;DHT22;5802;52.832;4.758;2024-01-16T04:14:17;23.20;38.70
11491;DHT22;5802;52.832;4.758;2024-01-16T04:16:44;23.20;38.70
11491;DHT22;5802;52.832;4.758;2024-01-16T04:19:11;23.20;38.80
11491;DHT22;5802;52.832;4.758;2024-01-16T04:21:38;23.20;38.70
11491;DHT22;5802;52.832;4.758;2024-01-16T04:24:06;23.20;38.70
11491;DHT22;5802;52.832;4.758;2024-01-16T04:26:35;23.20;38.70
11491;DHT22;5802;52.832;4.758;2024-01-16T04:29:03;23.20;38.70
11491;DHT22;5802;52.832;4.758;2024-01-16T04:31:30;23.20;38.70
11491;DHT22;5802;52.832;4.758;2024-01-16T04:33:58;23.20;38.70
11491;DHT22;5802;52.832;4.758;2024-01-16T04:36:25;23.20;38.70
11491;DHT22;5802;52.832;4.758;2024-01-16T04:38:52;23.20;38.70
11491;DHT22;5802;52.832;4.758;2024-01-16T04:41:20;23.20;38.70
11491;DHT22;5802;52.832;4.758;2024-01-16T04:43:47;23.20;38.70
11491;DHT22;5802;52.832;4.758;2024-01-16T04:46:20;23.20;38.70
11491;DHT22;5802;52.832;4.758;2024-01-16T04:48:47;23.20;38.80
11491;DHT22;5802;52.832;4.758;2024-01-16T04:51:15;23.20;38.70
11491;DHT22;5802;52.832;4.758;2024-01-16T04:53:42;23.20;38.70
11491;DHT22;5802;52.832;4.758;2024-01-16T04:56:09;23.20;38.70
11491;DHT22;5802;52.832;4.758;2024-01-16T04:58:37;23.20;38.70
11491;DHT22;5802;52.832;4.758;2024-01-16T05:01:04;23.20;38.80
11491;DHT22;5802;52.832;4.758;2024-01-16T05:03:31;23.20;38.70
11491;DHT22;5802;52.832;4.758;2024-01-16T05:05:57;23.20;38.70
11491;DHT22;5802;52.832;4.758;2024-01-16T05:08:24;23.20;38.70
11491;DHT22;5802;52.832;4.758;2024-01-16T05:10:51;23.30;38.80
11491;DHT22;5802;52.832;4.758;2024-01-16T05:13:18;23.20;38.70
11491;DHT22;5802;52.832;4.758;2024-01-16T05:15:46;23.30;38.80
11491;DHT22;5802;52.832;4.758;2024-01-16T05:18:13;23.30;38.80
11491;DHT22;5802;52.832;4.758;2024-01-16T05:20:40;23.30;38.80
11491;DHT22;5802;52.832;4.758;2024-01-16T05:23:06;23.30;38.80
11491;DHT22;5802;52.832;4.758;2024-01-16T05:25:33;23.30;38.80
11491;DHT22;5802;52.832;4.758;2024-01-16T05:28:00;23.30;38.80
11491;DHT22;5802;52.832;4.758;2024-01-16T05:30:27;23.30;38.80
11491;DHT22;5802;52.832;4.758;2024-01-16T05:32:55;23.30;38.80
11491;DHT22;5802;52.832;4.758;2024-01-16T05:35:26;23.30;38.80
11491;DHT22;5802;52.832;4.758;2024-01-16T05:37:53;23.30;38.80
11491;DHT22;5802;52.832;4.758;2024-01-16T05:40:21;23.30;38.80
11491;DHT22;5802;52.832;4.758;2024-01-16T05:42:48;23.30;38.80
11491;DHT22;5802;52.832;4.758;2024-01-16T05:45:15;23.30;38.80
11491;DHT22;5802;52.832;4.758;2024-01-16T05:47:42;23.30;38.80
11491;DHT22;5802;52.832;4.758;2024-01-16T05:50:10;23.30;38.80
11491;DHT22;5802;52.832;4.758;2024-01-16T05:52:37;23.30;38.80
11491;DHT22;5802;52.832;4.758;2024-01-16T05:55:06;23.30;38.80
11491;DHT22;5802;52.832;4.758;2024-01-16T05:57:33;23.30;38.80
11491;DHT22;5802;52.832;4.758;2024-01-16T06:00:00;23.30;38.80
11491;DHT22;5802;52.832;4.758;2024-01-16T06:02:28;23.30;38.80
11491;DHT22;5802;52.832;4.758;2024-01-16T06:04:55;23.30;38.80
11491;DHT22;5802;52.832;4.758;2024-01-16T06:07:23;23.30;38.80
11491;DHT22;5802;52.832;4.758;2024-01-16T06:09:51;23.30;38.80
11491;DHT22;5802;52.832;4.758;2024-01-16T06:12:18;23.30;38.70
11491;DHT22;5802;52.832;4.758;2024-01-16T06:14:44;23.30;38.70
11491;DHT22;5802;52.832;4.758;2024-01-16T06:17:11;23.30;39.40
11491;DHT22;5802;52.832;4.758;2024-01-16T06:19:38;23.30;38.80
11491;DHT22;5802;52.832;4.758;2024-01-16T06:22:05;23.30;38.70
11491;DHT22;5802;52.832;4.758;2024-01-16T06:24:33;23.30;38.70
11491;DHT22;5802;52.832;4.758;2024-01-16T06:27:04;23.30;38.70
11491;DHT22;5802;52.832;4.758;2024-01-16T06:29:31;23.30;38.70
11491;DHT22;5802;52.832;4.758;2024-01-16T06:31:58;23.30;38.70
11491;DHT22;5802;52.832;4.758;2024-01-16T06:34:25;23.30;38.70
11491;DHT22;5802;52.832;4.758;2024-01-16T06:36:52;23.30;38.80
11491;DHT22;5802;52.832;4.758;2024-01-16T06:39:18;23.30;38.80
11491;DHT22;5802;52.832;4.758;2024-01-16T06:41:47;23.30;38.80
11491;DHT22;5802;52.832;4.758;2024-01-16T06:44:13;23.30;38.80
11491;DHT22;5802;52.832;4.758;2024-01-16T06:46:40;23.30;38.80
11491;DHT22;5802;52.832;4.758;2024-01-16T06:49:07;23.30;38.80
11491;DHT22;5802;52.832;4.758;2024-01-16T06:51:34;23.30;38.80
11491;DHT22;5802;52.832;4.758;2024-01-16T06:54:01;23.30;38.80
11491;DHT22;5802;52.832;4.758;2024-01-16T06:56:29;23.30;38.80
11491;DHT22;5802;52.832;4.758;2024-01-16T06:58:57;23.30;38.80
11491;DHT22;5802;52.832;4.758;2024-01-16T07:01:24;23.30;38.80
11491;DHT22;5802;52.832;4.758;2024-01-16T07:03:50;23.30;38.80
11491;DHT22;5802;52.832;4.758;2024-01-16T07:06:18;23.30;38.80
11491;DHT22;5802;52.832;4.758;2024-01-16T07:08:45;23.30;38.80
11491;DHT22;5802;52.832;4.758;2024-01-16T07:11:11;23.30;38.80
11491;DHT22;5802;52.832;4.758;2024-01-16T07:13:39;23.30;38.80
11491;DHT22;5802;52.832;4.758;2024-01-16T07:16:09;23.30;38.80
11491;DHT22;5802;52.832;4.758;2024-01-16T07:18:36;23.30;38.80
11491;DHT22;5802;52.832;4.758;2024-01-16T07:21:03;23.30;38.80
11491;DHT22;5802;52.832;4.758;2024-01-16T07:23:30;23.30;38.80
11491;DHT22;5802;52.832;4.758;2024-01-16T07:25:56;23.30;38.80
11491;DHT22;5802;52.832;4.758;2024-01-16T07:28:23;23.30;38.80
11491;DHT22;5802;52.832;4.758;2024-01-16T07:30:53;23.30;38.80
11491;DHT22;5802;52.832;4.758;2024-01-16T07:33:21;23.30;38.80
11491;DHT22;5802;52.832;4.758;2024-01-16T07:35:48;23.30;38.80
11491;DHT22;5802;52.832;4.758;2024-01-16T07:38:15;23.30;38.80
11491;DHT22;5802;52.832;4.758;2024-01-16T07:40:42;23.30;39.40
11491;DHT22;5802;52.832;4.758;2024-01-16T07:43:09;23.30;38.80
11491;DHT22;5802;52.832;4.758;2024-01-16T07:45:35;23.30;38.80
11491;DHT22;5802;52.832;4.758;2024-01-16T07:48:03;23.30;38.80
11491;DHT22;5802;52.832;4.758;2024-01-16T07:50:31;23.30;38.80
11491;DHT22;5802;52.832;4.758;2024-01-16T07:52:58;23.30;38.20
11491;DHT22;5802;52.832;4.758;2024-01-16T07:55:25;23.30;38.80
11491;DHT22;5802;52.832;4.758;2024-01-16T07:57:53;23.30;38.80
11491;DHT22;5802;52.832;4.758;2024-01-16T08:00:21;23.30;38.80
11491;DHT22;5802;52.832;4.758;2024-01-16T08:02:47;23.30;38.80
11491;DHT22;5802;52.832;4.758;2024-01-16T08:05:14;23.30;38.80
11491;DHT22;5802;52.832;4.758;2024-01-16T08:07:43;23.30;38.80
11491;DHT22;5802;52.832;4.758;2024-01-16T08:10:10;23.30;38.80
11491;DHT22;5802;52.832;4.758;2024-01-16T08:12:37;23.30;38.80
11491;DHT22;5802;52.832;4.758;2024-01-16T08:15:05;23.30;38.80
11491;DHT22;5802;52.832;4.758;2024-01-16T08:17:33;23.30;38.80
11491;DHT22;5802;52.832;4.758;2024-01-16T08:19:59;23.30;38.80
11491;DHT22;5802;52.832;4.758;2024-01-16T08:22:26;23.30;38.80
11491;DHT22;5802;52.832;4.758;2024-01-16T08:24:55;23.30;38.80
11491;DHT22;5802;52.832;4.758;2024-01-16T08:27:22;23.30;38.80
11491;DHT22;5802;52.832;4.758;2024-01-16T08:29:48;23.30;38.90
11491;DHT22;5802;52.832;4.758;2024-01-16T08:32:15;23.30;38.80
11491;DHT22;5802;52.832;4.758;2024-01-16T08:34:42;23.30;38.80
11491;DHT22;5802;52.832;4.758;2024-01-16T08:37:09;23.30;38.80
11491;DHT22;5802;52.832;4.758;2024-01-16T08:39:36;23.30;38.80
11491;DHT22;5802;52.832;4.758;2024-01-16T08:42:05;23.30;38.80
11491;DHT22;5802;52.832;4.758;2024-01-16T08:44:32;23.30;38.80
11491;DHT22;5802;52.832;4.758;2024-01-16T08:46:58;23.30;38.80
11491;DHT22;5802;52.832;4.758;2024-01-16T08:49:27;23.30;38.80
11491;DHT22;5802;52.832;4.758;2024-01-16T08:51:54;23.30;38.80
11491;DHT22;5802;52.832;4.758;2024-01-16T08:54:21;23.30;38.80
11491;DHT22;5802;52.832;4.758;2024-01-16T08:56:48;23.30;38.90
11491;DHT22;5802;52.832;4.758;2024-01-16T08:59:17;23.30;38.80
11491;DHT22;5802;52.832;4.758;2024-01-16T09:01:44;23.30;38.90
11491;DHT22;5802;52.832;4.758;2024-01-16T09:04:11;23.30;38.80
11491;DHT22;5802;52.832;4.758;2024-01-16T09:06:38;23.30;38.80
11491;DHT22;5802;52.832;4.758;2024-01-16T09:09:05;23.30;38.80
11491;DHT22;5802;52.832;4.758;2024-01-16T09:11:32;23.30;38.80
11491;DHT22;5802;52.832;4.758;2024-01-16T09:13:59;23.30;38.90
11491;DHT22;5802;52.832;4.758;2024-01-16T09:16:27;23.30;38.90
11491;DHT22;5802;52.832;4.758;2024-01-16T09:18:54;23.40;38.90
11491;DHT22;5802;52.832;4.758;2024-01-16T09:21:21;23.40;38.90
11491;DHT22;5802;52.832;4.758;2024-01-16T09:23:48;23.30;38.80
11491;DHT22;5802;52.832;4.758;2024-01-16T09:26:15;23.40;38.90
11491;DHT22;5802;52.832;4.758;2024-01-16T09:28:42;23.40;39.00
11491;DHT22;5802;52.832;4.758;2024-01-16T09:31:09;23.40;38.90
11491;DHT22;5802;52.832;4.758;2024-01-16T09:33:38;23.40;38.80
11491;DHT22;5802;52.832;4.758;2024-01-16T09:36:05;23.40;38.80
11491;DHT22;5802;52.832;4.758;2024-01-16T09:38:32;23.40;38.80
11491;DHT22;5802;52.832;4.758;2024-01-16T09:40:59;23.40;39.50
11491;DHT22;5802;52.832;4.758;2024-01-16T09:43:28;23.40;38.80
11491;DHT22;5802;52.832;4.758;2024-01-16T09:46:00;23.40;38.80
11491;DHT22;5802;52.832;4.758;2024-01-16T09:48:28;23.50;38.90
11491;DHT22;5802;52.832;4.758;2024-01-16T09:50:56;23.50;38.80
11491;DHT22;5802;52.832;4.758;2024-01-16T09:53:23;23.50;38.80
11491;DHT22;5802;52.832;4.758;2024-01-16T09:55:54;23.50;38.80
11491;DHT22;5802;52.832;4.758;2024-01-16T09:58:21;23.50;38.70
11491;DHT22;5802;52.832;4.758;2024-01-16T10:00:49;23.50;38.80
11491;DHT22;5802;52.832;4.758;2024-01-16T10:03:17;23.50;38.70
11491;DHT22;5802;52.832;4.758;2024-01-16T10:05:45;23.50;38.70
11491;DHT22;5802;52.832;4.758;2024-01-16T10:08:14;23.60;38.80
11491;DHT22;5802;52.832;4.758;2024-01-16T10:10:41;23.60;38.80
11491;DHT22;5802;52.832;4.758;2024-01-16T10:13:08;23.60;38.70
11491;DHT22;5802;52.832;4.758;2024-01-16T10:15:35;23.60;38.70
11491;DHT22;5802;52.832;4.758;2024-01-16T10:18:03;23.70;38.70
11491;DHT22;5802;52.832;4.758;2024-01-16T10:20:33;23.60;38.60
11491;DHT22;5802;52.832;4.758;2024-01-16T10:23:01;23.70;38.70
11491;DHT22;5802;52.832;4.758;2024-01-16T10:25:30;23.70;38.70
11491;DHT22;5802;52.832;4.758;2024-01-16T10:28:05;23.70;38.50
11491;DHT22;5802;52.832;4.758;2024-01-16T10:30:33;23.70;38.40
11491;DHT22;5802;52.832;4.758;2024-01-16T10:33:13;23.70;38.30
11491;DHT22;5802;52.832;4.758;2024-01-16T10:35:40;23.70;38.30
11491;DHT22;5802;52.832;4.758;2024-01-16T10:38:07;23.70;38.30
11491;DHT22;5802;52.832;4.758;2024-01-16T10:40:35;23.70;38.40
11491;DHT22;5802;52.832;4.758;2024-01-16T10:43:03;23.80;38.40
11491;DHT22;5802;52.832;4.758;2024-01-16T10:45:31;23.80;38.40
11491;DHT22;5802;52.832;4.758;2024-01-16T10:48:02;23.80;38.40
11491;DHT22;5802;52.832;4.758;2024-01-16T10:50:29;23.80;38.30
11491;DHT22;5802;52.832;4.758;2024-01-16T10:52:59;23.80;38.30
11491;DHT22;5802;52.832;4.758;2024-01-16T10:55:28;23.80;38.30
11491;DHT22;5802;52.832;4.758;2024-01-16T10:57:57;23.80;38.30
11491;DHT22;5802;52.832;4.758;2024-01-16T11:00:27;23.80;38.30
11491;DHT22;5802;52.832;4.758;2024-01-16T11:02:59;23.80;38.30
11491;DHT22;5802;52.832;4.758;2024-01-16T11:05:28;23.80;38.30
11491;DHT22;5802;52.832;4.758;2024-01-16T11:07:58;23.90;39.00
11491;DHT22;5802;52.832;4.758;2024-01-16T11:10:27;23.80;38.30
11491;DHT22;5802;52.832;4.758;2024-01-16T11:12:59;23.90;38.30
11491;DHT22;5802;52.832;4.758;2024-01-16T11:15:27;23.80;38.30
11491;DHT22;5802;52.832;4.758;2024-01-16T11:17:55;23.90;38.30
11491;DHT22;5802;52.832;4.758;2024-01-16T11:20:23;23.90;38.30
11491;DHT22;5802;52.832;4.758;2024-01-16T11:22:51;23.90;38.30
11491;DHT22;5802;52.832;4.758;2024-01-16T11:25:31;23.90;38.30
11491;DHT22;5802;52.832;4.758;2024-01-16T11:28:08;23.90;38.30
11491;DHT22;5802;52.832;4.758;2024-01-16T11:30:35;23.90;38.30
11491;DHT22;5802;52.832;4.758;2024-01-16T11:33:02;23.90;38.30
11491;DHT22;5802;52.832;4.758;2024-01-16T11:35:34;23.90;38.30
11491;DHT22;5802;52.832;4.758;2024-01-16T11:38:07;23.90;38.30
11491;DHT22;5802;52.832;4.758;2024-01-16T11:40:35;23.90;38.30
11491;DHT22;5802;52.832;4.758;2024-01-16T11:43:36;23.90;38.30
11491;DHT22;5802;52.832;4.758;2024-01-16T11:46:05;23.90;38.30
11491;DHT22;5802;52.832;4.758;2024-01-16T11:48:33;23.90;38.30
11491;DHT22;5802;52.832;4.758;2024-01-16T11:51:00;23.90;38.30
11491;DHT22;5802;52.832;4.758;2024-01-16T11:53:37;23.90;38.20
11491;DHT22;5802;52.832;4.758;2024-01-16T12:02:14;24.00;38.20
11491;DHT22;5802;52.832;4.758;2024-01-16T12:04:52;24.00;38.10
11491;DHT22;5802;52.832;4.758;2024-01-16T12:07:19;24.00;38.10
11491;DHT22;5802;52.832;4.758;2024-01-16T12:09:46;24.00;38.10
11491;DHT22;5802;52.832;4.758;2024-01-16T12:12:15;23.90;38.00
11491;DHT22;5802;52.832;4.758;2024-01-16T12:14:52;23.90;38.00
11491;DHT22;5802;52.832;4.758;2024-01-16T12:17:20;24.00;38.00
11491;DHT22;5802;52.832;4.758;2024-01-16T12:19:46;24.00;38.00
11491;DHT22;5802;52.832;4.758;2024-01-16T12:22:15;24.00;38.00
11491;DHT22;5802;52.832;4.758;2024-01-16T12:24:44;24.00;38.00
11491;DHT22;5802;52.832;4.758;2024-01-16T12:27:14;24.00;38.00
11491;DHT22;5802;52.832;4.758;2024-01-16T12:29:41;24.00;38.00
11491;DHT22;5802;52.832;4.758;2024-01-16T12:32:09;24.00;38.10
11491;DHT22;5802;52.832;4.758;2024-01-16T12:34:44;24.00;38.00
11491;DHT22;5802;52.832;4.758;2024-01-16T12:37:12;24.00;38.00
11491;DHT22;5802;52.832;4.758;2024-01-16T12:39:39;24.00;38.00
11491;DHT22;5802;52.832;4.758;2024-01-16T12:42:08;24.00;38.00
11491;DHT22;5802;52.832;4.758;2024-01-16T12:44:37;24.00;38.00
11491;DHT22;5802;52.832;4.758;2024-01-16T12:47:04;24.00;38.70
11491;DHT22;5802;52.832;4.758;2024-01-16T12:49:32;24.00;38.00
11491;DHT22;5802;52.832;4.758;2024-01-16T12:52:18;24.00;38.00
11491;DHT22;5802;52.832;4.758;2024-01-16T12:54:46;24.00;38.00
11491;DHT22;5802;52.832;4.758;2024-01-16T12:57:17;24.00;38.00
11491;DHT22;5802;52.832;4.758;2024-01-16T12:59:45;24.00;38.00
11491;DHT22;5802;52.832;4.758;2024-01-16T13:02:20;24.00;37.90
11491;DHT22;5802;52.832;4.758;2024-01-16T13:04:56;24.00;37.90
11491;DHT22;5802;52.832;4.758;2024-01-16T13:07:24;24.10;38.00
11491;DHT22;5802;52.832;4.758;2024-01-16T13:10:06;24.10;38.00
11491;DHT22;5802;52.832;4.758;2024-01-16T13:12:34;24.10;38.00
11491;DHT22;5802;52.832;4.758;2024-01-16T13:15:02;24.10;37.90
11491;DHT22;5802;52.832;4.758;2024-01-16T13:17:31;24.10;37.90
11491;DHT22;5802;52.832;4.758;2024-01-16T13:20:00;24.20;37.90
11491;DHT22;5802;52.832;4.758;2024-01-16T13:22:27;24.20;37.90
11491;DHT22;5802;52.832;4.758;2024-01-16T13:24:53;24.20;37.90
11491;DHT22;5802;52.832;4.758;2024-01-16T13:27:21;24.20;37.90
11491;DHT22;5802;52.832;4.758;2024-01-16T13:29:48;24.20;37.90
11491;DHT22;5802;52.832;4.758;2024-01-16T13:32:15;24.10;37.80
11491;DHT22;5802;52.832;4.758;2024-01-16T13:34:42;24.10;37.90
11491;DHT22;5802;52.832;4.758;2024-01-16T13:37:20;24.20;37.90
11491;DHT22;5802;52.832;4.758;2024-01-16T13:39:47;24.20;37.90
11491;DHT22;5802;52.832;4.758;2024-01-16T13:42:14;24.20;37.80
11491;DHT22;5802;52.832;4.758;2024-01-16T13:44:46;24.20;37.80
11491;DHT22;5802;52.832;4.758;2024-01-16T13:47:15;24.20;37.80
11491;DHT22;5802;52.832;4.758;2024-01-16T13:49:41;24.20;37.80
11491;DHT22;5802;52.832;4.758;2024-01-16T13:52:09;24.30;37.80
11491;DHT22;5802;52.832;4.758;2024-01-16T13:54:40;24.30;37.80
11491;DHT22;5802;52.832;4.758;2024-01-16T13:57:07;24.30;37.80
11491;DHT22;5802;52.832;4.758;2024-01-16T13:59:34;24.20;37.70
11491;DHT22;5802;52.832;4.758;2024-01-16T14:02:02;24.30;37.80
11491;DHT22;5802;52.832;4.758;2024-01-16T14:04:29;24.30;37.80
11491;DHT22;5802;52.832;4.758;2024-01-16T14:06:56;24.30;37.80
11491;DHT22;5802;52.832;4.758;2024-01-16T14:09:23;24.30;37.70
11491;DHT22;5802;52.832;4.758;2024-01-16T14:11:51;24.30;37.70
11491;DHT22;5802;52.832;4.758;2024-01-16T14:14:18;24.20;37.80
11491;DHT22;5802;52.832;4.758;2024-01-16T14:16:45;24.30;37.70
11491;DHT22;5802;52.832;4.758;2024-01-16T14:19:17;24.30;37.70
11491;DHT22;5802;52.832;4.758;2024-01-16T14:21:44;24.20;37.70
11491;DHT22;5802;52.832;4.758;2024-01-16T14:24:12;24.20;37.70
11491;DHT22;5802;52.832;4.758;2024-01-16T14:26:42;24.20;37.70
11491;DHT22;5802;52.832;4.758;2024-01-16T14:29:12;24.20;37.70
11491;DHT22;5802;52.832;4.758;2024-01-16T14:31:39;24.20;37.70
11491;DHT22;5802;52.832;4.758;2024-01-16T14:34:10;24.20;37.70
11491;DHT22;5802;52.832;4.758;2024-01-16T14:36:37;24.20;37.70
11491;DHT22;5802;52.832;4.758;2024-01-16T14:39:04;24.20;37.70
11491;DHT22;5802;52.832;4.758;2024-01-16T14:41:31;24.20;38.20
11491;DHT22;5802;52.832;4.758;2024-01-16T14:43:58;24.20;37.50
11491;DHT22;5802;52.832;4.758;2024-01-16T14:46:26;24.20;37.70
11491;DHT22;5802;52.832;4.758;2024-01-16T14:48:53;24.20;37.70
11491;DHT22;5802;52.832;4.758;2024-01-16T14:51:20;24.20;37.60
11491;DHT22;5802;52.832;4.758;2024-01-16T14:53:47;24.20;37.60
11491;DHT22;5802;52.832;4.758;2024-01-16T14:56:14;24.20;37.50
11491;DHT22;5802;52.832;4.758;2024-01-16T14:58:41;24.20;37.20
11491;DHT22;5802;52.832;4.758;2024-01-16T15:01:09;24.20;37.20
11491;DHT22;5802;52.832;4.758;2024-01-16T15:03:37;24.20;37.30
11491;DHT22;5802;52.832;4.758;2024-01-16T15:06:04;24.10;37.30
11491;DHT22;5802;52.832;4.758;2024-01-16T15:08:31;24.20;37.40
11491;DHT22;5802;52.832;4.758;2024-01-16T15:10:58;24.20;37.30
11491;DHT22;5802;52.832;4.758;2024-01-16T15:13:26;24.10;37.20
11491;DHT22;5802;52.832;4.758;2024-01-16T15:15:52;24.20;37.20
11491;DHT22;5802;52.832;4.758;2024-01-16T15:18:21;24.20;37.30
11491;DHT22;5802;52.832;4.758;2024-01-16T15:20:49;24.20;37.20
11491;DHT22;5802;52.832;4.758;2024-01-16T15:23:16;24.10;37.20
11491;DHT22;5802;52.832;4.758;2024-01-16T15:25:43;24.20;37.20
11491;DHT22;5802;52.832;4.758;2024-01-16T15:28:10;24.10;37.20
11491;DHT22;5802;52.832;4.758;2024-01-16T15:30:38;24.10;37.20
11491;DHT22;5802;52.832;4.758;2024-01-16T15:33:05;24.10;37.20
11491;DHT22;5802;52.832;4.758;2024-01-16T15:35:32;24.10;37.20
11491;DHT22;5802;52.832;4.758;2024-01-16T15:38:00;24.10;37.90
11491;DHT22;5802;52.832;4.758;2024-01-16T15:40:28;24.10;37.20
11491;DHT22;5802;52.832;4.758;2024-01-16T15:42:55;24.10;37.20
11491;DHT22;5802;52.832;4.758;2024-01-16T15:45:22;24.10;37.20
11491;DHT22;5802;52.832;4.758;2024-01-16T15:47:49;24.10;37.30
11491;DHT22;5802;52.832;4.758;2024-01-16T15:50:18;24.10;37.30
11491;DHT22;5802;52.832;4.758;2024-01-16T15:52:45;24.10;37.30
11491;DHT22;5802;52.832;4.758;2024-01-16T15:55:13;24.10;37.30